Time;durP1;ratioP1;P1;durP2;ratioP2;P2;SDS_P1;SDS_P2;PMS_P1;PMS_P2;Temp;Humidity;BMP_temperature;BMP_pressure;BME280_temperature;BME280_humidity;BME280_pressure;Samples;Min_cycle;Max_cycle;Signal;HPM_P1;HPM_P2
2023/05/02 00:01:54;;;;;;;10.25;4.82;;;12.40;99.90;;;;;;5114592;28;20057;-72
2023/05/02 00:04:20;;;;;;;11.05;5.10;;;12.40;99.90;;;;;;5114851;28;20020;-72
2023/05/02 00:06:45;;;;;;;9.98;4.60;;;12.30;99.90;;;;;;5115441;28;20077;-72
2023/05/02 00:09:12;;;;;;;10.52;5.45;;;12.40;99.90;;;;;;5114718;28;20397;-71
2023/05/02 00:11:37;;;;;;;10.48;4.90;;;12.40;99.90;;;;;;5114492;28;20039;-72
2023/05/02 00:14:04;;;;;;;8.93;4.80;;;12.30;99.90;;;;;;5114580;28;20130;-72
2023/05/02 00:16:30;;;;;;;11.15;5.13;;;12.20;99.90;;;;;;5114326;28;20023;-71
2023/05/02 00:18:57;;;;;;;7.78;5.00;;;12.10;99.90;;;;;;5114495;28;20055;-72
2023/05/02 00:21:22;;;;;;;11.13;4.90;;;12.20;99.90;;;;;;5114850;28;20028;-71
2023/05/02 00:23:50;;;;;;;10.18;4.82;;;12.10;99.90;;;;;;5096347;28;20452;-71
2023/05/02 00:26:15;;;;;;;9.25;4.90;;;12.00;99.90;;;;;;5114694;28;20400;-71
2023/05/02 00:28:41;;;;;;;8.13;4.72;;;11.90;99.90;;;;;;5114853;28;20024;-72
2023/05/02 00:31:07;;;;;;;8.75;5.25;;;11.80;99.90;;;;;;5114107;28;20385;-72
2023/05/02 00:33:32;;;;;;;10.07;5.85;;;11.90;99.90;;;;;;5114271;28;20030;-71
2023/05/02 00:35:58;;;;;;;9.10;5.03;;;11.90;99.90;;;;;;5114445;28;20399;-72
2023/05/02 00:38:24;;;;;;;11.82;5.32;;;11.80;99.90;;;;;;5114460;28;20487;-72
2023/05/02 00:40:51;;;;;;;11.32;5.35;;;11.80;99.90;;;;;;5114724;28;20031;-71
2023/05/02 00:43:17;;;;;;;11.52;5.63;;;11.80;99.90;;;;;;5114441;28;20051;-71
2023/05/02 00:45:45;;;;;;;10.07;5.40;;;11.70;99.90;;;;;;5113889;28;20047;-72
2023/05/02 00:48:11;;;;;;;8.80;5.57;;;11.70;99.90;;;;;;5114644;28;20494;-72
2023/05/02 00:50:39;;;;;;;8.63;5.43;;;11.60;99.90;;;;;;5114053;28;20039;-71
2023/05/02 00:53:06;;;;;;;9.38;5.32;;;11.60;99.90;;;;;;5114001;28;20030;-71
2023/05/02 00:55:33;;;;;;;11.00;5.38;;;11.50;99.90;;;;;;5113639;28;20470;-71
2023/05/02 00:58:00;;;;;;;9.75;5.35;;;11.50;99.90;;;;;;5113489;28;20035;-71
2023/05/02 01:00:36;;;;;;;9.68;5.30;;;11.50;99.90;;;;;;5113664;28;20022;-72
2023/05/02 01:03:34;;;;;;;9.65;4.90;;;11.40;99.90;;;;;;5113879;28;20050;-70
2023/05/02 01:06:30;;;;;;;10.35;4.85;;;11.40;99.90;;;;;;5114143;28;20026;-71
2023/05/02 01:09:25;;;;;;;9.93;4.32;;;11.30;99.90;;;;;;5050474;28;20041;-70
2023/05/02 01:12:09;;;;;;;9.80;4.43;;;11.30;99.90;;;;;;5041361;28;20190;-69
2023/05/02 01:14:41;;;;;;;9.45;4.82;;;11.30;99.90;;;;;;5050394;28;20037;-71
2023/05/02 01:17:12;;;;;;;9.70;5.00;;;11.30;99.90;;;;;;5050617;28;20048;-70
2023/05/02 01:19:41;;;;;;;9.48;4.43;;;11.30;99.90;;;;;;5050554;28;20165;-71
2023/05/02 01:22:09;;;;;;;8.25;4.40;;;11.30;99.90;;;;;;5050459;28;20032;-71
2023/05/02 01:24:46;;;;;;;8.35;4.78;;;11.20;99.90;;;;;;5050444;28;20025;-71
2023/05/02 01:27:40;;;;;;;9.93;4.60;;;11.20;99.90;;;;;;5050058;28;20421;-71
2023/05/02 01:30:07;;;;;;;7.05;4.72;;;11.20;99.90;;;;;;5050336;28;20025;-71
2023/05/02 01:32:37;;;;;;;8.48;4.38;;;11.00;99.90;;;;;;5050338;28;20029;-71
2023/05/02 01:35:05;;;;;;;8.75;4.40;;;11.10;99.90;;;;;;5050233;28;20032;-71
2023/05/02 01:37:32;;;;;;;7.95;4.60;;;11.10;99.90;;;;;;5050531;28;20090;-71
2023/05/02 01:40:00;;;;;;;12.38;4.60;;;11.00;99.90;;;;;;5050221;28;20040;-71
2023/05/02 01:42:26;;;;;;;7.43;4.32;;;11.00;99.90;;;;;;5049670;28;20406;-71
2023/05/02 01:44:55;;;;;;;9.07;4.78;;;11.00;99.90;;;;;;5051654;28;20036;-71
2023/05/02 01:47:23;;;;;;;10.45;4.68;;;11.20;99.90;;;;;;5113016;28;20031;-71
2023/05/02 01:49:49;;;;;;;10.15;4.65;;;11.20;99.90;;;;;;5113093;28;20374;-71
2023/05/02 01:52:18;;;;;;;11.65;4.85;;;11.30;99.90;;;;;;5112374;28;20042;-71
2023/05/02 01:54:44;;;;;;;9.80;4.80;;;11.30;99.90;;;;;;5113046;28;20019;-71
2023/05/02 01:57:11;;;;;;;10.60;4.82;;;11.30;99.90;;;;;;5112301;28;20059;-71
2023/05/02 01:59:39;;;;;;;9.65;4.53;;;11.20;99.90;;;;;;5112540;28;20042;-71
2023/05/02 02:02:06;;;;;;;13.10;4.97;;;11.20;99.90;;;;;;5112777;28;20036;-72
2023/05/02 02:04:36;;;;;;;14.20;4.95;;;11.50;99.90;;;;;;5112640;28;20024;-70
2023/05/02 02:07:05;;;;;;;12.63;5.20;;;11.70;99.90;;;;;;5112812;28;20038;-72
2023/05/02 02:09:31;;;;;;;13.18;4.97;;;11.70;99.90;;;;;;5112175;28;20484;-72
2023/05/02 02:12:35;;;;;;;14.60;4.88;;;11.80;99.90;;;;;;5111849;28;20105;-72
2023/05/02 02:15:26;;;;;;;10.60;4.75;;;11.90;99.90;;;;;;5098785;28;20036;-71
2023/05/02 02:18:00;;;;;;;13.95;5.53;;;11.90;99.90;;;;;;5112194;28;20043;-71
2023/05/02 02:20:28;;;;;;;12.02;5.07;;;11.90;99.90;;;;;;5112631;28;20831;-72
2023/05/02 02:22:56;;;;;;;11.77;4.85;;;11.90;99.90;;;;;;5111904;28;20036;-72
2023/05/02 02:25:22;;;;;;;11.20;4.82;;;11.70;99.90;;;;;;5112221;28;20039;-72
2023/05/02 02:27:49;;;;;;;10.30;4.85;;;11.60;99.90;;;;;;5112124;28;20491;-71
2023/05/02 02:30:15;;;;;;;8.43;4.53;;;11.50;99.90;;;;;;5112368;28;20096;-71
2023/05/02 02:32:41;;;;;;;8.07;4.38;;;11.40;99.90;;;;;;5112213;28;20030;-72
2023/05/02 02:35:07;;;;;;;8.13;4.43;;;11.30;99.90;;;;;;5112026;28;20107;-72
2023/05/02 02:37:39;;;;;;;8.10;4.47;;;11.20;99.90;;;;;;5111733;28;20035;-71
2023/05/02 02:40:23;;;;;;;8.85;4.93;;;11.10;99.90;;;;;;5111724;28;20108;-71
2023/05/02 02:42:54;;;;;;;;;;;11.00;99.90;;;;;;5112409;28;20031;-71
2023/05/02 02:45:30;;;;;;;7.40;4.80;;;11.00;99.90;;;;;;5112028;28;19910;-72
2023/05/02 02:48:07;;;;;;;7.78;4.13;;;11.00;99.90;;;;;;5112104;28;20045;-72
2023/05/02 02:50:37;;;;;;;8.05;4.63;;;11.00;99.90;;;;;;5112063;28;20478;-72
2023/05/02 02:53:10;;;;;;;9.63;4.70;;;11.00;99.90;;;;;;5111734;28;20052;-71
2023/05/02 02:55:54;;;;;;;7.53;4.85;;;10.90;99.90;;;;;;5111459;28;20028;-71
2023/05/02 02:58:34;;;;;;;;;;;10.90;99.90;;;;;;5112244;28;20490;-72
2023/05/02 03:01:03;;;;;;;7.40;4.32;;;10.90;99.90;;;;;;5111771;28;19911;-71
2023/05/02 03:03:31;;;;;;;9.57;4.68;;;10.90;99.90;;;;;;5111721;28;20059;-71
2023/05/02 03:05:58;;;;;;;8.50;4.63;;;10.80;99.90;;;;;;5111983;28;20023;-72
2023/05/02 03:08:24;;;;;;;7.50;5.05;;;10.80;99.90;;;;;;5111104;28;20023;-71
2023/05/02 03:10:50;;;;;;;8.18;4.47;;;10.70;99.90;;;;;;5111624;28;20031;-71
2023/05/02 03:13:15;;;;;;;7.25;4.25;;;10.70;99.90;;;;;;5111475;28;20048;-72
2023/05/02 03:15:50;;;;;;;6.65;4.43;;;10.60;99.90;;;;;;5111640;28;20107;-72
2023/05/02 03:18:16;;;;;;;7.25;4.55;;;10.50;99.90;;;;;;5111403;28;20059;-71
2023/05/02 03:20:42;;;;;;;7.93;4.60;;;10.50;99.90;;;;;;5111963;28;20500;-72
2023/05/02 03:23:08;;;;;;;7.43;4.53;;;10.50;99.90;;;;;;5111334;28;20030;-71
2023/05/02 03:25:34;;;;;;;8.75;4.95;;;10.50;99.90;;;;;;5111398;28;20496;-71
2023/05/02 03:27:59;;;;;;;7.63;4.72;;;10.40;99.90;;;;;;5111611;28;20111;-71
2023/05/02 03:30:25;;;;;;;8.02;4.85;;;10.50;99.90;;;;;;5111509;28;20519;-72
2023/05/02 03:32:51;;;;;;;7.80;4.70;;;10.40;99.90;;;;;;5111652;28;20528;-72
2023/05/02 03:35:17;;;;;;;8.68;4.88;;;10.40;99.90;;;;;;5112612;28;20045;-72
2023/05/02 03:37:43;;;;;;;9.45;5.18;;;10.30;99.90;;;;;;5115016;28;20032;-71
2023/05/02 03:40:09;;;;;;;8.40;4.80;;;10.30;99.90;;;;;;5115444;28;20080;-72
2023/05/02 03:42:41;;;;;;;15.70;9.75;;;10.30;99.90;;;;;;5115407;28;20036;-71
2023/05/02 03:45:07;;;;;;;22.48;12.90;;;10.20;99.90;;;;;;5115605;28;20035;-72
2023/05/02 03:47:33;;;;;;;14.23;9.82;;;10.20;99.90;;;;;;5115301;28;20020;-71
2023/05/02 03:49:59;;;;;;;13.77;8.35;;;10.20;99.90;;;;;;5115107;28;20070;-71
2023/05/02 03:52:25;;;;;;;14.27;7.82;;;10.10;99.90;;;;;;5114668;28;20034;-71
2023/05/02 03:54:51;;;;;;;14.52;8.80;;;10.20;99.90;;;;;;5115231;28;20031;-72
2023/05/02 03:57:17;;;;;;;11.63;6.53;;;10.20;99.90;;;;;;5115066;28;20412;-72
2023/05/02 03:59:44;;;;;;;9.18;5.60;;;10.20;99.90;;;;;;5115353;28;20027;-71
2023/05/02 04:02:11;;;;;;;10.60;5.72;;;10.10;99.90;;;;;;5115024;28;20016;-71
2023/05/02 04:04:37;;;;;;;9.40;5.43;;;10.10;99.90;;;;;;5114905;28;20095;-71
2023/05/02 04:07:04;;;;;;;13.48;5.60;;;10.00;99.90;;;;;;5114952;28;20015;-71
2023/05/02 04:09:29;;;;;;;8.63;5.30;;;10.00;99.90;;;;;;5114838;28;20502;-72
2023/05/02 04:11:55;;;;;;;8.95;4.55;;;10.00;99.90;;;;;;5114646;28;20048;-71
2023/05/02 04:14:21;;;;;;;9.00;4.90;;;9.90;99.90;;;;;;5114719;28;20468;-71
2023/05/02 04:16:48;;;;;;;11.50;5.47;;;10.00;99.90;;;;;;5114955;28;20047;-71
2023/05/02 04:19:14;;;;;;;12.25;5.35;;;9.90;99.90;;;;;;5114513;28;20099;-72
2023/05/02 04:21:39;;;;;;;10.48;5.20;;;9.90;99.90;;;;;;5114228;28;20158;-70
2023/05/02 04:24:05;;;;;;;9.52;5.45;;;9.90;99.90;;;;;;5114698;28;20080;-71
2023/05/02 04:26:31;;;;;;;7.22;4.50;;;9.90;99.90;;;;;;5115029;28;20488;-71
2023/05/02 04:28:56;;;;;;;6.95;4.95;;;9.80;99.90;;;;;;5114460;28;20042;-71
2023/05/02 04:31:22;;;;;;;10.10;4.85;;;9.70;99.90;;;;;;5114592;28;20098;-71
2023/05/02 04:33:48;;;;;;;8.38;5.28;;;9.70;99.90;;;;;;5114178;28;20027;-71
2023/05/02 04:36:13;;;;;;;7.07;4.50;;;9.70;99.90;;;;;;5113973;28;20104;-72
2023/05/02 04:38:39;;;;;;;9.88;5.38;;;9.60;99.90;;;;;;5114646;28;20061;-71
2023/05/02 04:41:05;;;;;;;8.60;4.90;;;9.60;99.90;;;;;;5114157;28;20073;-71
2023/05/02 04:43:31;;;;;;;9.60;5.00;;;9.70;99.90;;;;;;5114290;28;20034;-71
2023/05/02 04:45:57;;;;;;;10.93;5.25;;;9.60;99.90;;;;;;5114026;28;20028;-71
2023/05/02 04:48:24;;;;;;;7.45;5.00;;;9.70;99.90;;;;;;5113997;28;20059;-71
2023/05/02 04:50:52;;;;;;;7.32;4.97;;;9.60;99.90;;;;;;5113899;28;20031;-71
2023/05/02 04:53:20;;;;;;;10.75;5.22;;;9.60;99.90;;;;;;5113995;28;20029;-71
2023/05/02 04:55:45;;;;;;;11.00;5.68;;;9.60;99.90;;;;;;5113959;28;20016;-72
2023/05/02 04:58:11;;;;;;;10.70;5.75;;;9.50;99.90;;;;;;5113790;28;20088;-71
2023/05/02 05:00:37;;;;;;;10.23;5.65;;;9.50;99.90;;;;;;5114061;28;20038;-71
2023/05/02 05:03:03;;;;;;;9.73;5.80;;;9.60;99.90;;;;;;5113623;28;20027;-71
2023/05/02 05:05:29;;;;;;;10.27;5.50;;;9.50;99.90;;;;;;5113676;28;20058;-71
2023/05/02 05:07:54;;;;;;;10.52;5.50;;;9.50;99.90;;;;;;5113517;28;20028;-72
2023/05/02 05:10:20;;;;;;;11.77;5.68;;;9.50;99.90;;;;;;5113760;28;20027;-69
2023/05/02 05:12:46;;;;;;;11.50;5.90;;;9.50;99.90;;;;;;5113699;28;20045;-72
2023/05/02 05:15:11;;;;;;;12.93;6.50;;;9.60;99.90;;;;;;5095221;28;20054;-71
2023/05/02 05:17:37;;;;;;;10.68;6.30;;;9.50;99.90;;;;;;5113271;28;20400;-71
2023/05/02 05:20:04;;;;;;;11.65;6.45;;;9.50;99.90;;;;;;5113305;28;20377;-71
2023/05/02 05:22:30;;;;;;;14.13;6.53;;;9.60;99.90;;;;;;5113532;28;20020;-71
2023/05/02 05:24:55;;;;;;;11.35;6.20;;;9.60;99.90;;;;;;5113630;28;20032;-72
2023/05/02 05:27:21;;;;;;;12.75;6.38;;;9.60;99.90;;;;;;5113408;28;20118;-71
2023/05/02 05:29:47;;;;;;;12.00;6.50;;;9.60;99.90;;;;;;5113207;28;20035;-71
2023/05/02 05:32:13;;;;;;;11.10;6.28;;;9.60;99.90;;;;;;5113362;28;20020;-71
2023/05/02 05:34:38;;;;;;;11.95;6.28;;;9.70;99.90;;;;;;5112965;28;20446;-71
2023/05/02 05:37:04;;;;;;;12.20;6.45;;;9.70;99.90;;;;;;5113004;28;20081;-70
2023/05/02 05:39:30;;;;;;;13.15;6.15;;;9.60;99.90;;;;;;5113017;28;20423;-71
2023/05/02 05:41:56;;;;;;;9.45;6.43;;;9.70;99.90;;;;;;5113376;28;20027;-72
2023/05/02 05:44:22;;;;;;;10.52;6.13;;;9.70;99.90;;;;;;5113211;28;20031;-72
2023/05/02 05:46:47;;;;;;;11.75;6.75;;;9.70;99.90;;;;;;5113053;28;20042;-72
2023/05/02 05:49:16;;;;;;;15.25;7.30;;;9.80;99.90;;;;;;5112667;28;20035;-73
2023/05/02 05:51:42;;;;;;;11.50;6.95;;;9.80;99.90;;;;;;5113203;28;20023;-71
2023/05/02 05:54:08;;;;;;;13.70;7.20;;;9.90;99.90;;;;;;5094544;28;20053;-72
2023/05/02 05:56:34;;;;;;;10.73;7.55;;;9.90;99.90;;;;;;5112716;28;20373;-72
2023/05/02 05:58:59;;;;;;;11.27;7.65;;;9.90;99.90;;;;;;5112122;28;20476;-72
2023/05/02 06:01:25;;;;;;;11.77;7.72;;;10.00;99.90;;;;;;5112459;28;20028;-72
2023/05/02 06:03:51;;;;;;;10.30;8.35;;;10.10;99.90;;;;;;5112251;28;20032;-72
2023/05/02 06:06:16;;;;;;;12.13;9.02;;;10.10;99.90;;;;;;5112864;28;20400;-73
2023/05/02 06:08:42;;;;;;;13.35;8.95;;;10.10;99.90;;;;;;5112451;28;20028;-72
2023/05/02 06:11:12;;;;;;;13.57;9.70;;;10.10;99.90;;;;;;5112571;28;20023;-72
2023/05/02 06:13:37;;;;;;;12.60;9.80;;;10.10;99.90;;;;;;5112411;28;20031;-72
2023/05/02 06:16:04;;;;;;;10.05;8.75;;;10.20;99.90;;;;;;5112306;28;20084;-72
2023/05/02 06:18:29;;;;;;;12.93;9.30;;;10.20;99.90;;;;;;5112152;28;20043;-72
2023/05/02 06:20:55;;;;;;;11.55;8.27;;;10.30;99.90;;;;;;5112006;28;20108;-72
2023/05/02 06:23:21;;;;;;;12.43;8.80;;;10.40;99.90;;;;;;5112419;28;20411;-72
2023/05/02 06:25:46;;;;;;;13.02;8.50;;;10.40;99.90;;;;;;5112279;28;20449;-72
2023/05/02 06:28:12;;;;;;;12.57;9.55;;;10.50;99.90;;;;;;5112287;28;20027;-72
2023/05/02 06:30:38;;;;;;;14.25;8.73;;;10.60;99.90;;;;;;5111941;28;20029;-72
2023/05/02 06:33:04;;;;;;;11.10;8.07;;;10.60;99.90;;;;;;5111802;28;20056;-73
2023/05/02 06:35:30;;;;;;;14.80;8.60;;;10.70;99.90;;;;;;5112238;28;20054;-73
2023/05/02 06:37:56;;;;;;;14.18;8.40;;;10.80;99.90;;;;;;5111915;28;20496;-72
2023/05/02 06:40:21;;;;;;;11.70;8.27;;;10.80;99.90;;;;;;5112019;28;20028;-72
2023/05/02 06:42:47;;;;;;;12.23;8.00;;;11.00;99.90;;;;;;5112146;28;20028;-73
2023/05/02 06:45:13;;;;;;;10.63;7.60;;;11.10;99.90;;;;;;5111702;28;20473;-73
2023/05/02 06:47:39;;;;;;;10.63;7.53;;;11.10;99.90;;;;;;5111303;28;20035;-72
2023/05/02 06:50:05;;;;;;;14.43;7.30;;;11.30;99.90;;;;;;5112265;28;20058;-72
2023/05/02 06:52:30;;;;;;;13.25;7.30;;;11.40;99.90;;;;;;5111842;28;20036;-72
2023/05/02 06:54:56;;;;;;;11.70;7.03;;;11.50;99.90;;;;;;5111794;28;20502;-72
2023/05/02 06:57:23;;;;;;;15.18;7.57;;;11.60;99.90;;;;;;5111760;28;20043;-72
2023/05/02 06:59:49;;;;;;;12.38;6.78;;;11.70;99.90;;;;;;5111733;28;20090;-72
2023/05/02 07:02:15;;;;;;;11.23;6.35;;;11.80;99.90;;;;;;5111397;28;20169;-72
2023/05/02 07:04:40;;;;;;;10.40;6.18;;;11.80;99.90;;;;;;5111841;28;20470;-72
2023/05/02 07:07:06;;;;;;;10.55;6.65;;;11.90;99.90;;;;;;5111454;28;20046;-72
2023/05/02 07:09:32;;;;;;;10.45;6.20;;;12.00;99.90;;;;;;5097449;28;20032;-72
2023/05/02 07:11:57;;;;;;;7.78;5.75;;;12.00;99.90;;;;;;5095789;28;20032;-73
2023/05/02 07:14:23;;;;;;;10.27;6.28;;;12.10;99.90;;;;;;5095497;28;20507;-72
2023/05/02 07:16:49;;;;;;;12.70;5.95;;;12.20;99.90;;;;;;5094937;28;20051;-71
2023/05/02 07:19:14;;;;;;;9.75;5.65;;;12.20;99.90;;;;;;5095430;28;20020;-72
2023/05/02 07:21:40;;;;;;;9.68;6.07;;;12.30;99.90;;;;;;5095245;28;20034;-72
2023/05/02 07:24:06;;;;;;;10.10;5.07;;;12.40;99.90;;;;;;5095353;28;20104;-73
2023/05/02 07:26:31;;;;;;;8.98;5.00;;;12.50;99.90;;;;;;5095602;28;20032;-73
2023/05/02 07:28:57;;;;;;;8.77;5.50;;;12.70;99.90;;;;;;5095162;28;20085;-72
2023/05/02 07:31:23;;;;;;;10.90;5.40;;;12.70;99.90;;;;;;5094584;28;20032;-73
2023/05/02 07:33:48;;;;;;;8.05;4.80;;;12.80;99.90;;;;;;5095596;28;20035;-73
2023/05/02 07:36:14;;;;;;;10.95;5.20;;;12.90;99.90;;;;;;5095113;28;20334;-73
2023/05/02 07:38:39;;;;;;;8.15;4.32;;;13.00;99.90;;;;;;5095154;28;20064;-73
2023/05/02 07:41:05;;;;;;;7.53;4.50;;;13.10;99.90;;;;;;5094942;28;20024;-73
2023/05/02 07:43:31;;;;;;;10.27;4.88;;;13.20;99.90;;;;;;5095245;28;20027;-73
2023/05/02 07:45:57;;;;;;;11.00;4.80;;;13.20;99.90;;;;;;5094595;28;20040;-73
2023/05/02 07:48:22;;;;;;;10.07;4.20;;;13.30;99.90;;;;;;5094923;28;20107;-73
2023/05/02 07:50:48;;;;;;;10.30;4.20;;;13.40;99.90;;;;;;5094714;28;20542;-72
2023/05/02 07:53:14;;;;;;;7.03;3.75;;;13.50;99.90;;;;;;5094964;28;20028;-74
2023/05/02 07:55:40;;;;;;;6.22;3.40;;;13.60;99.90;;;;;;5094913;28;20042;-73
2023/05/02 07:58:05;;;;;;;9.70;4.07;;;13.70;99.90;;;;;;5094528;28;20067;-74
2023/05/02 08:00:31;;;;;;;10.82;4.80;;;13.80;99.90;;;;;;5094445;28;20027;-73
2023/05/02 08:02:57;;;;;;;7.57;3.47;;;14.00;99.90;;;;;;5076373;28;20081;-73
2023/05/02 08:05:22;;;;;;;7.20;3.35;;;14.00;99.90;;;;;;5094635;28;20396;-73
2023/05/02 08:07:48;;;;;;;7.05;3.30;;;14.10;99.90;;;;;;5094497;28;20023;-73
2023/05/02 08:10:13;;;;;;;6.30;3.08;;;14.20;99.90;;;;;;5114362;28;20109;-73
2023/05/02 08:12:40;;;;;;;7.20;3.33;;;14.30;99.90;;;;;;5114682;28;20044;-73
2023/05/02 08:15:09;;;;;;;5.97;2.83;;;14.40;99.90;;;;;;5114700;28;20123;-73
2023/05/02 08:17:35;;;;;;;6.93;3.50;;;14.50;99.90;;;;;;5114555;28;20042;-73
2023/05/02 08:20:01;;;;;;;7.93;2.67;;;14.60;99.90;;;;;;5114761;28;20012;-73
2023/05/02 08:22:26;;;;;;;6.85;2.80;;;14.60;99.90;;;;;;5095653;28;20089;-73
2023/05/02 08:24:52;;;;;;;5.10;2.50;;;14.60;99.90;;;;;;5114472;28;20019;-72
2023/05/02 08:27:18;;;;;;;9.35;2.88;;;14.80;99.90;;;;;;5114948;28;20064;-73
2023/05/02 08:29:43;;;;;;;7.57;2.83;;;14.80;99.90;;;;;;5114048;28;20090;-73
2023/05/02 08:32:09;;;;;;;7.05;2.97;;;14.90;99.90;;;;;;5114661;28;20115;-73
2023/05/02 08:34:35;;;;;;;7.43;2.30;;;15.00;99.90;;;;;;5114148;28;20150;-73
2023/05/02 08:37:01;;;;;;;8.60;2.85;;;15.10;99.90;;;;;;5114452;28;20037;-73
2023/05/02 08:39:26;;;;;;;6.22;2.58;;;15.10;99.90;;;;;;5095819;28;20027;-73
2023/05/02 08:41:52;;;;;;;6.40;2.58;;;15.20;99.90;;;;;;5096123;28;20484;-72
2023/05/02 08:44:18;;;;;;;9.18;2.75;;;15.20;99.90;;;;;;5114189;28;20077;-74
2023/05/02 08:46:44;;;;;;;6.82;3.13;;;15.30;99.90;;;;;;5114131;28;20027;-73
2023/05/02 08:49:11;;;;;;;5.50;2.78;;;15.40;99.90;;;;;;5114091;28;20024;-74
2023/05/02 08:51:38;;;;;;;6.43;2.75;;;15.50;99.90;;;;;;5113971;28;20032;-72
2023/05/02 08:54:08;;;;;;;7.88;2.85;;;15.50;99.90;;;;;;5113882;28;20032;-72
2023/05/02 08:56:34;;;;;;;6.70;2.63;;;15.60;99.90;;;;;;5113476;28;20032;-73
2023/05/02 08:58:59;;;;;;;7.03;2.92;;;15.70;99.90;;;;;;5113862;28;20023;-73
2023/05/02 09:01:29;;;;;;;7.13;2.72;;;15.80;99.90;;;;;;5114237;28;20054;-72
2023/05/02 09:03:58;;;;;;;7.70;2.80;;;15.80;99.90;;;;;;5113968;28;20024;-72
2023/05/02 09:06:25;;;;;;;4.18;2.08;;;15.90;99.90;;;;;;5113710;28;20030;-71
2023/05/02 09:08:51;;;;;;;5.88;2.15;;;16.00;99.90;;;;;;5113436;28;20055;-72
2023/05/02 09:11:18;;;;;;;8.00;2.47;;;16.10;99.90;;;;;;5113511;28;20019;-73
2023/05/02 09:13:44;;;;;;;3.15;1.73;;;16.20;99.90;;;;;;5113603;28;20492;-73
2023/05/02 09:16:21;;;;;;;4.95;1.80;;;16.30;99.90;;;;;;5113574;28;20024;-73
2023/05/02 09:18:49;;;;;;;5.82;2.00;;;16.30;99.90;;;;;;5113483;28;20049;-72
2023/05/02 09:21:19;;;;;;;6.03;2.08;;;16.30;99.90;;;;;;5113673;28;20023;-73
2023/05/02 09:23:53;;;;;;;4.75;1.70;;;16.50;99.90;;;;;;5113619;28;20081;-73
2023/05/02 09:26:30;;;;;;;4.72;1.95;;;16.60;99.90;;;;;;5112979;28;20392;-73
2023/05/02 09:28:56;;;;;;;7.90;2.33;;;16.80;99.90;;;;;;5113445;28;20492;-73
2023/05/02 09:31:29;;;;;;;5.82;2.10;;;16.80;99.90;;;;;;5113308;28;20074;-72
2023/05/02 09:33:55;;;;;;;2.80;1.65;;;16.90;99.90;;;;;;5112189;28;20517;-72
2023/05/02 09:36:22;;;;;;;5.15;2.10;;;17.00;99.90;;;;;;5113038;28;20023;-73
2023/05/02 09:38:49;;;;;;;7.53;2.25;;;17.00;99.90;;;;;;5113373;28;20031;-73
2023/05/02 09:41:18;;;;;;;5.93;1.90;;;17.00;99.90;;;;;;5112759;28;20077;-73
2023/05/02 09:43:56;;;;;;;5.28;1.80;;;17.10;99.90;;;;;;5113124;28;20035;-73
2023/05/02 09:46:21;;;;;;;4.85;1.80;;;17.30;99.90;;;;;;5113090;28;20031;-73
2023/05/02 09:48:55;;;;;;;5.15;1.60;;;17.40;99.90;;;;;;5112987;28;20019;-73
2023/05/02 09:51:24;;;;;;;4.07;1.90;;;17.50;99.90;;;;;;5113305;28;20035;-73
2023/05/02 09:53:50;;;;;;;4.72;1.80;;;17.60;99.90;;;;;;5112769;28;20031;-73
2023/05/02 09:56:17;;;;;;;3.42;1.67;;;17.70;99.90;;;;;;5112051;28;20501;-73
2023/05/02 09:58:42;;;;;;;4.63;1.60;;;17.60;99.90;;;;;;5112260;28;20058;-74
2023/05/02 10:01:14;;;;;;;4.65;1.70;;;17.70;99.90;;;;;;5112648;28;20499;-71
2023/05/02 10:03:40;;;;;;;3.22;1.60;;;17.90;99.90;;;;;;5112771;28;20512;-72
2023/05/02 10:06:08;;;;;;;4.80;2.30;;;18.00;99.90;;;;;;5112589;28;20028;-71
2023/05/02 10:08:34;;;;;;;5.20;2.50;;;18.00;99.90;;;;;;5093741;28;20104;-71
2023/05/02 10:11:05;;;;;;;2.95;1.63;;;18.20;99.90;;;;;;5111886;28;20548;-72
2023/05/02 10:13:33;;;;;;;6.15;1.88;;;18.20;99.90;;;;;;5112242;28;20055;-71
2023/05/02 10:16:03;;;;;;;3.03;1.50;;;18.20;99.90;;;;;;5112207;28;20048;-72
2023/05/02 10:18:38;;;;;;;3.92;1.73;;;18.20;99.90;;;;;;5094217;28;20044;-71
2023/05/02 10:21:11;;;;;;;4.15;1.60;;;18.40;99.90;;;;;;5112285;28;20055;-72
2023/05/02 10:23:42;;;;;;;3.97;1.70;;;18.50;99.90;;;;;;5112213;28;20107;-72
2023/05/02 10:26:08;;;;;;;3.22;1.60;;;18.60;99.90;;;;;;5112206;28;20544;-72
2023/05/02 10:28:34;;;;;;;5.35;1.48;;;18.60;99.90;;;;;;5112099;28;20015;-72
2023/05/02 10:31:01;;;;;;;7.35;1.65;;;18.70;99.90;;;;;;5111650;28;20084;-73
2023/05/02 10:33:30;;;;;;;4.47;1.55;;;18.70;99.90;;;;;;5111283;28;20138;-73
2023/05/02 10:35:56;;;;;;;5.45;1.65;;;18.70;99.90;;;;;;5112108;28;20027;-72
2023/05/02 10:38:23;;;;;;;4.68;1.65;;;18.90;99.90;;;;;;5093124;28;20043;-73
2023/05/02 10:40:59;;;;;;;4.20;1.70;;;18.90;99.90;;;;;;5111506;28;20026;-72
2023/05/02 10:43:29;;;;;;;4.43;1.67;;;18.90;99.90;;;;;;5111674;28;20408;-73
2023/05/02 10:45:55;;;;;;;6.05;1.80;;;19.10;99.90;;;;;;5111990;28;20473;-72
2023/05/02 10:48:26;;;;;;;4.45;1.63;;;19.30;99.90;;;;;;5111774;28;20028;-73
2023/05/02 10:50:56;;;;;;;3.58;1.58;;;19.30;99.90;;;;;;5111361;28;20030;-73
2023/05/02 10:53:30;;;;;;;3.90;1.60;;;19.20;99.90;;;;;;5111578;28;20530;-73
2023/05/02 10:56:24;;;;;;;5.82;1.50;;;19.30;99.90;;;;;;5111496;28;20042;-73
2023/05/02 10:58:52;;;;;;;2.40;1.40;;;19.40;99.90;;;;;;5111474;28;20523;-74
2023/05/02 11:01:25;;;;;;;4.00;1.70;;;19.40;99.90;;;;;;5111527;28;20026;-74
2023/05/02 11:03:57;;;;;;;3.55;1.30;;;19.50;99.90;;;;;;5111461;28;20038;-72
2023/05/02 11:06:25;;;;;;;4.85;1.95;;;19.60;99.90;;;;;;5111253;28;20032;-73
2023/05/02 11:08:51;;;;;;;3.70;1.60;;;19.70;99.90;;;;;;5111171;28;20439;-74
2023/05/02 11:11:41;;;;;;;4.18;1.63;;;19.70;99.90;;;;;;5111382;28;20022;-75
2023/05/02 11:14:08;;;;;;;5.80;1.73;;;19.80;99.90;;;;;;5111202;28;20381;-74
2023/05/02 11:17:05;;;;;;;4.07;1.55;;;19.90;99.90;;;;;;5111192;28;20024;-73
2023/05/02 11:19:36;;;;;;;4.82;1.83;;;20.00;99.90;;;;;;5111182;28;20084;-73
2023/05/02 11:22:22;;;;;;;3.40;1.65;;;20.10;99.90;;;;;;5111748;28;20027;-74
2023/05/02 11:24:49;;;;;;;3.00;1.40;;;20.20;99.90;;;;;;5111569;28;20403;-72
2023/05/02 11:27:30;;;;;;;3.30;1.65;;;20.20;99.90;;;;;;5111046;28;20084;-72
2023/05/02 11:29:57;;;;;;;2.42;1.40;;;20.30;99.90;;;;;;5092966;28;20462;-74
2023/05/02 11:32:44;;;;;;;3.25;1.40;;;20.30;99.90;;;;;;5111493;28;20388;-74
2023/05/02 11:35:25;;;;;;;2.78;1.50;;;20.40;99.90;;;;;;5110636;28;20644;-75
2023/05/02 11:38:04;;;;;;;6.75;1.88;;;20.50;99.90;;;;;;5111102;28;20043;-75
2023/05/02 11:40:30;;;;;;;3.95;1.45;;;20.50;99.90;;;;;;5111012;28;20030;-74
2023/05/02 11:42:59;;;;;;;3.70;1.65;;;20.40;99.90;;;;;;5111182;28;20034;-75
2023/05/02 11:45:43;;;;;;;4.38;1.40;;;20.40;99.90;;;;;;5111222;28;20031;-75
2023/05/02 11:48:11;;;;;;;2.97;1.45;;;20.70;99.90;;;;;;5111158;28;20111;-75
2023/05/02 11:50:57;;;;;;;3.50;1.75;;;21.00;99.90;;;;;;5092889;28;20426;-74
2023/05/02 11:53:30;;;;;;;3.60;1.60;;;21.10;99.90;;;;;;5111274;28;20031;-75
2023/05/02 11:56:03;;;;;;;5.47;1.83;;;21.20;99.90;;;;;;5111968;28;20059;-75
2023/05/02 11:58:32;;;;;;;3.67;1.80;;;21.30;99.90;;;;;;5114847;28;20068;-75
2023/05/02 12:00:58;;;;;;;2.67;1.50;;;21.20;99.90;;;;;;5114815;28;20527;-75
2023/05/02 12:03:30;;;;;;;2.72;1.70;;;21.10;99.90;;;;;;5114907;28;20446;-75
2023/05/02 12:06:10;;;;;;;4.38;3.08;;;21.10;99.90;;;;;;5114435;28;20643;-75
2023/05/02 12:08:36;;;;;;;4.70;2.90;;;21.20;99.90;;;;;;5114561;28;20020;-75
2023/05/02 12:11:01;;;;;;;6.55;1.88;;;21.20;99.90;;;;;;5115107;28;20049;-75
2023/05/02 12:13:28;;;;;;;7.35;1.55;;;21.20;99.90;;;;;;5114725;28;20031;-75
2023/05/02 12:15:55;;;;;;;4.03;1.50;;;21.30;99.90;;;;;;5114695;28;20105;-75
2023/05/02 12:18:22;;;;;;;2.97;1.70;;;21.50;99.90;;;;;;5114951;28;20059;-75
2023/05/02 12:20:50;;;;;;;3.50;1.42;;;21.70;99.90;;;;;;5114477;28;20026;-75
2023/05/02 12:23:18;;;;;;;3.17;1.50;;;21.80;99.90;;;;;;5114686;28;20365;-76
2023/05/02 12:25:43;;;;;;;5.30;1.27;;;21.90;99.90;;;;;;5114502;28;20031;-75
2023/05/02 12:28:10;;;;;;;3.90;1.67;;;21.80;99.90;;;;;;5114426;28;20023;-76
2023/05/02 12:30:37;;;;;;;3.58;1.42;;;21.90;99.90;;;;;;5114283;28;20032;-75
2023/05/02 12:33:05;;;;;;;5.82;1.52;;;22.10;99.90;;;;;;5114658;28;20388;-75
2023/05/02 12:35:31;;;;;;;2.90;1.40;;;22.30;99.90;;;;;;5114248;28;20042;-75
2023/05/02 12:38:21;;;;;;;3.60;1.60;;;22.30;99.90;;;;;;5114679;28;20088;-75
2023/05/02 12:40:48;;;;;;;3.55;1.65;;;22.40;99.90;;;;;;5114438;28;20510;-75
2023/05/02 12:43:14;;;;;;;2.97;1.60;;;22.50;99.90;;;;;;5114369;28;20067;-75
2023/05/02 12:45:40;;;;;;;3.85;1.65;;;22.60;99.90;;;;;;5114723;28;20047;-75
2023/05/02 12:48:25;;;;;;;2.92;1.60;;;22.70;99.90;;;;;;5113965;28;20047;-75
2023/05/02 12:50:52;;;;;;;4.68;1.52;;;22.80;99.90;;;;;;5114176;28;20047;-75
2023/05/02 12:53:37;;;;;;;4.25;1.67;;;22.80;99.90;;;;;;5114401;28;20094;-75